sensor_id;sensor_type;location;lat;lon;timestamp;P1;durP1;ratioP1;P2;durP2;ratioP2
27201;SDS011;14717;46.924;15.474;2023-05-27T00:02:05;8.07;;;4.32;;
27201;SDS011;14717;46.924;15.474;2023-05-27T00:04:31;7.80;;;3.72;;
27201;SDS011;14717;46.924;15.474;2023-05-27T00:06:56;6.88;;;3.85;;
27201;SDS011;14717;46.924;15.474;2023-05-27T00:09:21;10.70;;;4.60;;
27201;SDS011;14717;46.924;15.474;2023-05-27T00:11:47;10.70;;;4.68;;
27201;SDS011;14717;46.924;15.474;2023-05-27T00:14:12;9.68;;;4.32;;
27201;SDS011;14717;46.924;15.474;2023-05-27T00:16:38;10.82;;;4.43;;
27201;SDS011;14717;46.924;15.474;2023-05-27T00:19:03;9.18;;;4.70;;
27201;SDS011;14717;46.924;15.474;2023-05-27T00:21:29;8.77;;;4.55;;
27201;SDS011;14717;46.924;15.474;2023-05-27T00:23:54;8.80;;;4.78;;
27201;SDS011;14717;46.924;15.474;2023-05-27T00:26:22;7.95;;;4.53;;
27201;SDS011;14717;46.924;15.474;2023-05-27T00:28:48;9.43;;;4.75;;
27201;SDS011;14717;46.924;15.474;2023-05-27T00:31:13;9.13;;;4.30;;
27201;SDS011;14717;46.924;15.474;2023-05-27T00:33:39;7.78;;;4.40;;
27201;SDS011;14717;46.924;15.474;2023-05-27T00:36:05;8.43;;;3.88;;
27201;SDS011;14717;46.924;15.474;2023-05-27T00:38:30;10.15;;;4.50;;
27201;SDS011;14717;46.924;15.474;2023-05-27T00:40:56;7.57;;;4.43;;
27201;SDS011;14717;46.924;15.474;2023-05-27T00:43:24;7.15;;;4.22;;
27201;SDS011;14717;46.924;15.474;2023-05-27T00:45:50;10.18;;;4.55;;
27201;SDS011;14717;46.924;15.474;2023-05-27T00:48:15;9.32;;;4.90;;
27201;SDS011;14717;46.924;15.474;2023-05-27T00:50:40;7.72;;;4.18;;
27201;SDS011;14717;46.924;15.474;2023-05-27T00:55:32;8.20;;;4.40;;
27201;SDS011;14717;46.924;15.474;2023-05-27T00:57:57;6.95;;;4.20;;
27201;SDS011;14717;46.924;15.474;2023-05-27T01:00:24;8.00;;;4.32;;
27201;SDS011;14717;46.924;15.474;2023-05-27T01:02:49;7.00;;;4.25;;
27201;SDS011;14717;46.924;15.474;2023-05-27T01:05:16;10.88;;;5.03;;
27201;SDS011;14717;46.924;15.474;2023-05-27T01:10:23;9.15;;;5.15;;
27201;SDS011;14717;46.924;15.474;2023-05-27T01:12:59;8.57;;;4.22;;
27201;SDS011;14717;46.924;15.474;2023-05-27T01:15:30;10.60;;;4.80;;
27201;SDS011;14717;46.924;15.474;2023-05-27T01:17:57;8.43;;;4.28;;
27201;SDS011;14717;46.924;15.474;2023-05-27T01:20:28;8.95;;;4.88;;
27201;SDS011;14717;46.924;15.474;2023-05-27T01:22:54;12.70;;;4.57;;
27201;SDS011;14717;46.924;15.474;2023-05-27T01:25:22;10.80;;;4.53;;
27201;SDS011;14717;46.924;15.474;2023-05-27T01:27:48;7.57;;;4.68;;
27201;SDS011;14717;46.924;15.474;2023-05-27T01:32:46;10.32;;;5.25;;
27201;SDS011;14717;46.924;15.474;2023-05-27T01:35:35;7.10;;;4.50;;
27201;SDS011;14717;46.924;15.474;2023-05-27T01:38:24;8.73;;;4.32;;
27201;SDS011;14717;46.924;15.474;2023-05-27T01:40:53;7.78;;;4.07;;
27201;SDS011;14717;46.924;15.474;2023-05-27T01:43:19;7.80;;;4.10;;
27201;SDS011;14717;46.924;15.474;2023-05-27T01:45:46;9.32;;;4.72;;
27201;SDS011;14717;46.924;15.474;2023-05-27T01:48:12;9.68;;;4.68;;
27201;SDS011;14717;46.924;15.474;2023-05-27T01:50:37;8.38;;;4.28;;
27201;SDS011;14717;46.924;15.474;2023-05-27T01:55:28;8.80;;;4.88;;
27201;SDS011;14717;46.924;15.474;2023-05-27T01:57:55;8.07;;;3.95;;
27201;SDS011;14717;46.924;15.474;2023-05-27T02:00:21;8.93;;;4.53;;
27201;SDS011;14717;46.924;15.474;2023-05-27T02:05:12;10.50;;;5.00;;
27201;SDS011;14717;46.924;15.474;2023-05-27T02:10:03;9.13;;;4.30;;
27201;SDS011;14717;46.924;15.474;2023-05-27T02:14:54;8.93;;;4.40;;
27201;SDS011;14717;46.924;15.474;2023-05-27T02:19:45;11.13;;;4.60;;
27201;SDS011;14717;46.924;15.474;2023-05-27T02:24:36;7.87;;;4.30;;
27201;SDS011;14717;46.924;15.474;2023-05-27T02:29:27;10.27;;;4.85;;
27201;SDS011;14717;46.924;15.474;2023-05-27T02:34:17;7.73;;;4.50;;
27201;SDS011;14717;46.924;15.474;2023-05-27T02:39:08;9.50;;;4.83;;
27201;SDS011;14717;46.924;15.474;2023-05-27T02:43:59;10.30;;;4.90;;
27201;SDS011;14717;46.924;15.474;2023-05-27T02:48:50;9.23;;;4.43;;
27201;SDS011;14717;46.924;15.474;2023-05-27T02:51:15;9.20;;;5.00;;
27201;SDS011;14717;46.924;15.474;2023-05-27T02:53:40;8.70;;;4.90;;
27201;SDS011;14717;46.924;15.474;2023-05-27T02:58:31;9.48;;;4.97;;
27201;SDS011;14717;46.924;15.474;2023-05-27T03:00:56;11.13;;;5.07;;
27201;SDS011;14717;46.924;15.474;2023-05-27T03:05:48;8.95;;;4.63;;
27201;SDS011;14717;46.924;15.474;2023-05-27T03:10:39;9.63;;;4.73;;
27201;SDS011;14717;46.924;15.474;2023-05-27T03:15:30;10.82;;;5.07;;
27201;SDS011;14717;46.924;15.474;2023-05-27T03:17:56;10.15;;;5.18;;
27201;SDS011;14717;46.924;15.474;2023-05-27T03:20:22;9.02;;;5.10;;
27201;SDS011;14717;46.924;15.474;2023-05-27T03:25:13;9.50;;;4.00;;
27201;SDS011;14717;46.924;15.474;2023-05-27T03:27:39;10.55;;;5.13;;
27201;SDS011;14717;46.924;15.474;2023-05-27T03:32:31;10.05;;;4.75;;
27201;SDS011;14717;46.924;15.474;2023-05-27T03:34:56;9.57;;;4.68;;
27201;SDS011;14717;46.924;15.474;2023-05-27T03:37:21;10.68;;;5.20;;
27201;SDS011;14717;46.924;15.474;2023-05-27T03:42:12;9.40;;;4.63;;
27201;SDS011;14717;46.924;15.474;2023-05-27T03:44:38;9.88;;;4.80;;
27201;SDS011;14717;46.924;15.474;2023-05-27T03:47:03;9.68;;;4.57;;
27201;SDS011;14717;46.924;15.474;2023-05-27T03:49:29;10.07;;;5.30;;
27201;SDS011;14717;46.924;15.474;2023-05-27T03:51:55;9.88;;;4.90;;
27201;SDS011;14717;46.924;15.474;2023-05-27T03:56:45;11.83;;;5.07;;
27201;SDS011;14717;46.924;15.474;2023-05-27T03:59:11;7.82;;;4.95;;
27201;SDS011;14717;46.924;15.474;2023-05-27T04:04:02;9.95;;;5.22;;
27201;SDS011;14717;46.924;15.474;2023-05-27T04:06:27;10.35;;;5.03;;
27201;SDS011;14717;46.924;15.474;2023-05-27T04:11:18;10.10;;;4.87;;
27201;SDS011;14717;46.924;15.474;2023-05-27T04:16:09;9.87;;;5.07;;
27201;SDS011;14717;46.924;15.474;2023-05-27T04:18:35;8.55;;;4.95;;
27201;SDS011;14717;46.924;15.474;2023-05-27T04:23:26;9.40;;;5.13;;
27201;SDS011;14717;46.924;15.474;2023-05-27T04:28:17;8.70;;;4.70;;
27201;SDS011;14717;46.924;15.474;2023-05-27T04:30:43;8.90;;;5.43;;
27201;SDS011;14717;46.924;15.474;2023-05-27T04:33:10;11.95;;;5.32;;
27201;SDS011;14717;46.924;15.474;2023-05-27T04:38:01;12.60;;;5.73;;
27201;SDS011;14717;46.924;15.474;2023-05-27T04:40:27;11.48;;;5.38;;
27201;SDS011;14717;46.924;15.474;2023-05-27T04:42:54;10.60;;;5.75;;
27201;SDS011;14717;46.924;15.474;2023-05-27T04:45:20;9.52;;;5.70;;
27201;SDS011;14717;46.924;15.474;2023-05-27T04:47:45;10.38;;;5.65;;
27201;SDS011;14717;46.924;15.474;2023-05-27T04:50:11;9.73;;;6.10;;
27201;SDS011;14717;46.924;15.474;2023-05-27T04:52:39;10.43;;;6.00;;
27201;SDS011;14717;46.924;15.474;2023-05-27T04:55:07;8.65;;;5.60;;
27201;SDS011;14717;46.924;15.474;2023-05-27T04:57:34;12.68;;;6.05;;
27201;SDS011;14717;46.924;15.474;2023-05-27T05:00:00;12.43;;;6.20;;
27201;SDS011;14717;46.924;15.474;2023-05-27T05:02:33;12.63;;;6.32;;
27201;SDS011;14717;46.924;15.474;2023-05-27T05:05:09;11.23;;;6.30;;
27201;SDS011;14717;46.924;15.474;2023-05-27T05:07:35;11.90;;;6.13;;
27201;SDS011;14717;46.924;15.474;2023-05-27T05:10:06;10.82;;;6.13;;
27201;SDS011;14717;46.924;15.474;2023-05-27T05:12:32;12.20;;;5.85;;
27201;SDS011;14717;46.924;15.474;2023-05-27T05:17:23;10.70;;;6.20;;
27201;SDS011;14717;46.924;15.474;2023-05-27T05:19:49;12.13;;;6.53;;
27201;SDS011;14717;46.924;15.474;2023-05-27T05:22:16;15.68;;;6.47;;
27201;SDS011;14717;46.924;15.474;2023-05-27T05:24:44;10.52;;;6.35;;
27201;SDS011;14717;46.924;15.474;2023-05-27T05:27:09;10.80;;;6.40;;
27201;SDS011;14717;46.924;15.474;2023-05-27T05:32:01;11.98;;;6.43;;
27201;SDS011;14717;46.924;15.474;2023-05-27T05:36:52;10.50;;;5.87;;
27201;SDS011;14717;46.924;15.474;2023-05-27T05:39:18;10.50;;;6.25;;
27201;SDS011;14717;46.924;15.474;2023-05-27T05:44:08;15.77;;;6.72;;
27201;SDS011;14717;46.924;15.474;2023-05-27T05:48:59;10.23;;;5.53;;
27201;SDS011;14717;46.924;15.474;2023-05-27T05:53:50;9.40;;;5.57;;
27201;SDS011;14717;46.924;15.474;2023-05-27T05:58:41;8.47;;;5.17;;
27201;SDS011;14717;46.924;15.474;2023-05-27T06:03:31;9.93;;;5.73;;
27201;SDS011;14717;46.924;15.474;2023-05-27T06:05:57;10.75;;;5.47;;
27201;SDS011;14717;46.924;15.474;2023-05-27T06:08:24;10.50;;;5.47;;
27201;SDS011;14717;46.924;15.474;2023-05-27T06:10:50;10.93;;;5.93;;
27201;SDS011;14717;46.924;15.474;2023-05-27T06:13:16;11.70;;;5.55;;
27201;SDS011;14717;46.924;15.474;2023-05-27T06:15:42;9.25;;;5.22;;
27201;SDS011;14717;46.924;15.474;2023-05-27T06:20:32;10.07;;;5.28;;
27201;SDS011;14717;46.924;15.474;2023-05-27T06:22:58;11.52;;;5.68;;
27201;SDS011;14717;46.924;15.474;2023-05-27T06:25:23;8.30;;;5.00;;
27201;SDS011;14717;46.924;15.474;2023-05-27T06:27:48;8.70;;;5.50;;
27201;SDS011;14717;46.924;15.474;2023-05-27T06:30:14;9.68;;;5.35;;
27201;SDS011;14717;46.924;15.474;2023-05-27T06:32:39;8.40;;;5.30;;
27201;SDS011;14717;46.924;15.474;2023-05-27T06:35:05;10.05;;;5.50;;
27201;SDS011;14717;46.924;15.474;2023-05-27T06:37:30;10.60;;;5.40;;
27201;SDS011;14717;46.924;15.474;2023-05-27T06:39:56;10.50;;;4.97;;
27201;SDS011;14717;46.924;15.474;2023-05-27T06:42:21;8.43;;;5.22;;
27201;SDS011;14717;46.924;15.474;2023-05-27T06:44:47;9.18;;;5.20;;
27201;SDS011;14717;46.924;15.474;2023-05-27T06:47:13;9.15;;;5.50;;
27201;SDS011;14717;46.924;15.474;2023-05-27T06:49:38;9.10;;;5.10;;
27201;SDS011;14717;46.924;15.474;2023-05-27T06:52:04;9.73;;;5.22;;
27201;SDS011;14717;46.924;15.474;2023-05-27T06:54:30;10.43;;;5.32;;
27201;SDS011;14717;46.924;15.474;2023-05-27T06:56:55;10.18;;;4.65;;
27201;SDS011;14717;46.924;15.474;2023-05-27T06:59:21;9.48;;;5.53;;
27201;SDS011;14717;46.924;15.474;2023-05-27T07:01:47;9.48;;;5.30;;
27201;SDS011;14717;46.924;15.474;2023-05-27T07:04:12;10.48;;;5.43;;
27201;SDS011;14717;46.924;15.474;2023-05-27T07:06:38;11.90;;;5.07;;
27201;SDS011;14717;46.924;15.474;2023-05-27T07:09:03;7.68;;;4.80;;
27201;SDS011;14717;46.924;15.474;2023-05-27T07:11:29;6.63;;;4.53;;
27201;SDS011;14717;46.924;15.474;2023-05-27T07:13:54;9.07;;;4.65;;
27201;SDS011;14717;46.924;15.474;2023-05-27T07:16:20;8.00;;;4.50;;
27201;SDS011;14717;46.924;15.474;2023-05-27T07:18:46;12.20;;;5.25;;
27201;SDS011;14717;46.924;15.474;2023-05-27T07:21:11;8.18;;;4.25;;
27201;SDS011;14717;46.924;15.474;2023-05-27T07:23:36;9.60;;;4.63;;
27201;SDS011;14717;46.924;15.474;2023-05-27T07:26:02;11.15;;;4.80;;
27201;SDS011;14717;46.924;15.474;2023-05-27T07:28:27;10.05;;;4.50;;
27201;SDS011;14717;46.924;15.474;2023-05-27T07:30:52;13.18;;;4.72;;
27201;SDS011;14717;46.924;15.474;2023-05-27T07:33:18;8.10;;;4.85;;
27201;SDS011;14717;46.924;15.474;2023-05-27T07:35:43;7.13;;;4.35;;
27201;SDS011;14717;46.924;15.474;2023-05-27T07:38:09;6.00;;;3.50;;
27201;SDS011;14717;46.924;15.474;2023-05-27T07:40:35;8.30;;;4.03;;
27201;SDS011;14717;46.924;15.474;2023-05-27T07:43:01;7.70;;;4.45;;
27201;SDS011;14717;46.924;15.474;2023-05-27T07:45:26;9.43;;;4.13;;
27201;SDS011;14717;46.924;15.474;2023-05-27T07:47:53;7.00;;;3.92;;
27201;SDS011;14717;46.924;15.474;2023-05-27T07:50:19;8.23;;;4.00;;
27201;SDS011;14717;46.924;15.474;2023-05-27T07:52:44;9.38;;;4.18;;
27201;SDS011;14717;46.924;15.474;2023-05-27T07:55:10;8.55;;;3.78;;
27201;SDS011;14717;46.924;15.474;2023-05-27T07:57:35;7.65;;;4.03;;
27201;SDS011;14717;46.924;15.474;2023-05-27T08:00:01;7.45;;;3.78;;
27201;SDS011;14717;46.924;15.474;2023-05-27T08:02:27;9.95;;;3.95;;
27201;SDS011;14717;46.924;15.474;2023-05-27T08:04:52;6.97;;;3.95;;
27201;SDS011;14717;46.924;15.474;2023-05-27T08:07:18;20.27;;;4.35;;
27201;SDS011;14717;46.924;15.474;2023-05-27T08:09:45;12.65;;;4.53;;
27201;SDS011;14717;46.924;15.474;2023-05-27T08:12:11;11.15;;;3.85;;
27201;SDS011;14717;46.924;15.474;2023-05-27T08:14:38;8.93;;;3.53;;
27201;SDS011;14717;46.924;15.474;2023-05-27T08:17:05;9.73;;;3.78;;
27201;SDS011;14717;46.924;15.474;2023-05-27T08:19:31;8.18;;;3.72;;
27201;SDS011;14717;46.924;15.474;2023-05-27T08:21:56;8.05;;;3.78;;
27201;SDS011;14717;46.924;15.474;2023-05-27T08:24:22;6.15;;;3.15;;
27201;SDS011;14717;46.924;15.474;2023-05-27T08:26:47;6.90;;;3.33;;
27201;SDS011;14717;46.924;15.474;2023-05-27T08:29:13;6.32;;;3.45;;
27201;SDS011;14717;46.924;15.474;2023-05-27T08:31:39;8.48;;;3.50;;
27201;SDS011;14717;46.924;15.474;2023-05-27T08:34:05;7.57;;;3.30;;
27201;SDS011;14717;46.924;15.474;2023-05-27T08:36:31;7.65;;;3.30;;
27201;SDS011;14717;46.924;15.474;2023-05-27T08:38:56;11.13;;;3.83;;
27201;SDS011;14717;46.924;15.474;2023-05-27T08:41:22;7.20;;;3.25;;
27201;SDS011;14717;46.924;15.474;2023-05-27T08:43:47;7.78;;;3.53;;
27201;SDS011;14717;46.924;15.474;2023-05-27T08:46:14;5.20;;;2.53;;
27201;SDS011;14717;46.924;15.474;2023-05-27T08:48:40;8.45;;;3.28;;
27201;SDS011;14717;46.924;15.474;2023-05-27T08:51:05;7.80;;;3.10;;
27201;SDS011;14717;46.924;15.474;2023-05-27T08:53:31;6.88;;;3.20;;
27201;SDS011;14717;46.924;15.474;2023-05-27T08:55:58;9.02;;;2.95;;
27201;SDS011;14717;46.924;15.474;2023-05-27T08:58:26;7.82;;;3.15;;
27201;SDS011;14717;46.924;15.474;2023-05-27T09:00:52;9.90;;;3.10;;
27201;SDS011;14717;46.924;15.474;2023-05-27T09:03:17;7.63;;;2.97;;
27201;SDS011;14717;46.924;15.474;2023-05-27T09:05:43;6.07;;;3.10;;
27201;SDS011;14717;46.924;15.474;2023-05-27T09:08:08;10.88;;;3.10;;
27201;SDS011;14717;46.924;15.474;2023-05-27T09:10:37;6.70;;;2.70;;
27201;SDS011;14717;46.924;15.474;2023-05-27T09:13:04;6.10;;;2.90;;
27201;SDS011;14717;46.924;15.474;2023-05-27T09:15:33;8.15;;;3.10;;
27201;SDS011;14717;46.924;15.474;2023-05-27T09:17:59;5.35;;;2.65;;
27201;SDS011;14717;46.924;15.474;2023-05-27T09:20:25;6.32;;;2.95;;
27201;SDS011;14717;46.924;15.474;2023-05-27T09:22:55;6.20;;;2.75;;
27201;SDS011;14717;46.924;15.474;2023-05-27T09:25:25;6.10;;;2.33;;
27201;SDS011;14717;46.924;15.474;2023-05-27T09:27:51;10.38;;;2.70;;
27201;SDS011;14717;46.924;15.474;2023-05-27T09:30:18;5.45;;;2.65;;
27201;SDS011;14717;46.924;15.474;2023-05-27T09:32:46;6.25;;;2.60;;
27201;SDS011;14717;46.924;15.474;2023-05-27T09:35:12;6.25;;;2.50;;
27201;SDS011;14717;46.924;15.474;2023-05-27T09:37:41;7.57;;;2.83;;
27201;SDS011;14717;46.924;15.474;2023-05-27T09:40:09;6.47;;;2.40;;
27201;SDS011;14717;46.924;15.474;2023-05-27T09:42:40;5.90;;;2.85;;
27201;SDS011;14717;46.924;15.474;2023-05-27T09:45:13;5.95;;;2.78;;
27201;SDS011;14717;46.924;15.474;2023-05-27T09:47:52;6.53;;;2.80;;
27201;SDS011;14717;46.924;15.474;2023-05-27T09:50:19;4.35;;;2.40;;
27201;SDS011;14717;46.924;15.474;2023-05-27T09:52:45;5.85;;;2.50;;
27201;SDS011;14717;46.924;15.474;2023-05-27T09:55:12;6.90;;;2.72;;
27201;SDS011;14717;46.924;15.474;2023-05-27T09:57:41;6.15;;;2.80;;
27201;SDS011;14717;46.924;15.474;2023-05-27T10:00:07;7.15;;;2.67;;
27201;SDS011;14717;46.924;15.474;2023-05-27T10:02:37;8.98;;;2.92;;
27201;SDS011;14717;46.924;15.474;2023-05-27T10:05:05;8.30;;;2.63;;
27201;SDS011;14717;46.924;15.474;2023-05-27T10:07:39;7.10;;;2.53;;
27201;SDS011;14717;46.924;15.474;2023-05-27T10:10:12;5.70;;;2.53;;
27201;SDS011;14717;46.924;15.474;2023-05-27T10:12:42;8.30;;;3.38;;
27201;SDS011;14717;46.924;15.474;2023-05-27T10:15:09;7.38;;;2.97;;
27201;SDS011;14717;46.924;15.474;2023-05-27T10:17:51;5.78;;;2.67;;
27201;SDS011;14717;46.924;15.474;2023-05-27T10:23:10;6.43;;;3.10;;
27201;SDS011;14717;46.924;15.474;2023-05-27T10:25:39;6.40;;;2.72;;
27201;SDS011;14717;46.924;15.474;2023-05-27T10:28:05;7.47;;;2.53;;
27201;SDS011;14717;46.924;15.474;2023-05-27T10:30:44;5.35;;;2.65;;
27201;SDS011;14717;46.924;15.474;2023-05-27T10:33:11;6.70;;;2.40;;
27201;SDS011;14717;46.924;15.474;2023-05-27T10:35:43;6.93;;;2.75;;
27201;SDS011;14717;46.924;15.474;2023-05-27T10:38:15;9.02;;;2.53;;
27201;SDS011;14717;46.924;15.474;2023-05-27T10:40:41;7.63;;;2.80;;
27201;SDS011;14717;46.924;15.474;2023-05-27T10:43:14;5.22;;;2.60;;
27201;SDS011;14717;46.924;15.474;2023-05-27T10:45:41;7.70;;;2.60;;
27201;SDS011;14717;46.924;15.474;2023-05-27T10:48:19;9.98;;;3.78;;
27201;SDS011;14717;46.924;15.474;2023-05-27T10:53:20;9.05;;;2.90;;
27201;SDS011;14717;46.924;15.474;2023-05-27T10:55:47;4.95;;;2.40;;
27201;SDS011;14717;46.924;15.474;2023-05-27T10:58:15;5.95;;;2.70;;
27201;SDS011;14717;46.924;15.474;2023-05-27T11:00:41;6.32;;;2.63;;
27201;SDS011;14717;46.924;15.474;2023-05-27T11:05:55;6.85;;;2.53;;
27201;SDS011;14717;46.924;15.474;2023-05-27T11:08:29;4.90;;;2.67;;
27201;SDS011;14717;46.924;15.474;2023-05-27T11:11:10;6.95;;;2.50;;
27201;SDS011;14717;46.924;15.474;2023-05-27T11:13:43;6.95;;;2.95;;
27201;SDS011;14717;46.924;15.474;2023-05-27T11:16:11;5.45;;;2.60;;
27201;SDS011;14717;46.924;15.474;2023-05-27T11:21:04;5.57;;;3.00;;
27201;SDS011;14717;46.924;15.474;2023-05-27T11:23:43;5.53;;;2.40;;
27201;SDS011;14717;46.924;15.474;2023-05-27T11:26:12;7.70;;;3.22;;
27201;SDS011;14717;46.924;15.474;2023-05-27T11:28:44;6.65;;;3.13;;
27201;SDS011;14717;46.924;15.474;2023-05-27T11:31:11;6.72;;;3.03;;
27201;SDS011;14717;46.924;15.474;2023-05-27T11:33:39;6.57;;;2.42;;
27201;SDS011;14717;46.924;15.474;2023-05-27T11:36:13;7.10;;;2.55;;
27201;SDS011;14717;46.924;15.474;2023-05-27T11:41:15;5.32;;;3.03;;
27201;SDS011;14717;46.924;15.474;2023-05-27T11:46:14;4.18;;;2.63;;
27201;SDS011;14717;46.924;15.474;2023-05-27T11:48:39;6.65;;;2.85;;
27201;SDS011;14717;46.924;15.474;2023-05-27T11:51:05;7.00;;;2.88;;
27201;SDS011;14717;46.924;15.474;2023-05-27T11:53:30;6.30;;;3.08;;
27201;SDS011;14717;46.924;15.474;2023-05-27T11:55:56;4.93;;;2.90;;
27201;SDS011;14717;46.924;15.474;2023-05-27T11:58:21;6.40;;;2.70;;
27201;SDS011;14717;46.924;15.474;2023-05-27T12:00:47;7.78;;;2.97;;
27201;SDS011;14717;46.924;15.474;2023-05-27T12:03:12;6.65;;;2.65;;
27201;SDS011;14717;46.924;15.474;2023-05-27T12:05:37;9.02;;;3.00;;
27201;SDS011;14717;46.924;15.474;2023-05-27T12:08:03;9.32;;;3.22;;
27201;SDS011;14717;46.924;15.474;2023-05-27T12:10:28;6.50;;;3.13;;
27201;SDS011;14717;46.924;15.474;2023-05-27T12:13:02;7.60;;;3.00;;
27201;SDS011;14717;46.924;15.474;2023-05-27T12:15:28;6.10;;;3.05;;
27201;SDS011;14717;46.924;15.474;2023-05-27T12:17:53;6.40;;;2.85;;
27201;SDS011;14717;46.924;15.474;2023-05-27T12:20:18;7.35;;;2.92;;
27201;SDS011;14717;46.924;15.474;2023-05-27T12:22:45;5.97;;;3.08;;
27201;SDS011;14717;46.924;15.474;2023-05-27T12:25:10;7.22;;;3.13;;
27201;SDS011;14717;46.924;15.474;2023-05-27T12:27:36;13.35;;;3.35;;
27201;SDS011;14717;46.924;15.474;2023-05-27T12:30:02;9.32;;;3.10;;
27201;SDS011;14717;46.924;15.474;2023-05-27T12:32:27;7.65;;;2.80;;
27201;SDS011;14717;46.924;15.474;2023-05-27T12:34:53;7.18;;;2.85;;
27201;SDS011;14717;46.924;15.474;2023-05-27T12:37:18;6.40;;;3.20;;
27201;SDS011;14717;46.924;15.474;2023-05-27T12:39:43;9.18;;;3.08;;
27201;SDS011;14717;46.924;15.474;2023-05-27T12:42:09;9.68;;;3.30;;
27201;SDS011;14717;46.924;15.474;2023-05-27T12:44:34;8.93;;;2.88;;
27201;SDS011;14717;46.924;15.474;2023-05-27T12:47:00;8.07;;;3.30;;
27201;SDS011;14717;46.924;15.474;2023-05-27T12:49:25;7.57;;;3.60;;
27201;SDS011;14717;46.924;15.474;2023-05-27T12:51:50;5.72;;;2.83;;
27201;SDS011;14717;46.924;15.474;2023-05-27T12:54:16;7.65;;;3.00;;
27201;SDS011;14717;46.924;15.474;2023-05-27T12:56:41;5.75;;;3.00;;
27201;SDS011;14717;46.924;15.474;2023-05-27T12:59:07;5.50;;;3.00;;
27201;SDS011;14717;46.924;15.474;2023-05-27T13:01:32;6.97;;;3.05;;
27201;SDS011;14717;46.924;15.474;2023-05-27T13:03:57;7.13;;;3.08;;
27201;SDS011;14717;46.924;15.474;2023-05-27T13:06:23;6.90;;;3.22;;
27201;SDS011;14717;46.924;15.474;2023-05-27T13:08:48;5.47;;;2.92;;
27201;SDS011;14717;46.924;15.474;2023-05-27T13:11:13;7.40;;;3.17;;
27201;SDS011;14717;46.924;15.474;2023-05-27T13:13:39;9.70;;;3.30;;
27201;SDS011;14717;46.924;15.474;2023-05-27T13:16:05;8.05;;;3.30;;
27201;SDS011;14717;46.924;15.474;2023-05-27T13:18:30;5.95;;;3.03;;
27201;SDS011;14717;46.924;15.474;2023-05-27T13:20:55;8.00;;;3.47;;
27201;SDS011;14717;46.924;15.474;2023-05-27T13:23:21;5.93;;;2.85;;
27201;SDS011;14717;46.924;15.474;2023-05-27T13:25:47;6.53;;;3.28;;
27201;SDS011;14717;46.924;15.474;2023-05-27T13:28:12;5.68;;;2.92;;
27201;SDS011;14717;46.924;15.474;2023-05-27T13:30:38;7.22;;;3.17;;
27201;SDS011;14717;46.924;15.474;2023-05-27T13:33:03;7.13;;;3.58;;
27201;SDS011;14717;46.924;15.474;2023-05-27T13:35:28;8.43;;;3.30;;
27201;SDS011;14717;46.924;15.474;2023-05-27T13:37:54;6.88;;;3.13;;
27201;SDS011;14717;46.924;15.474;2023-05-27T13:40:20;8.13;;;3.47;;
27201;SDS011;14717;46.924;15.474;2023-05-27T13:42:46;5.82;;;3.08;;
27201;SDS011;14717;46.924;15.474;2023-05-27T13:45:11;5.97;;;3.10;;
27201;SDS011;14717;46.924;15.474;2023-05-27T13:47:36;5.65;;;2.80;;
27201;SDS011;14717;46.924;15.474;2023-05-27T13:50:05;7.50;;;3.28;;
27201;SDS011;14717;46.924;15.474;2023-05-27T13:52:31;6.30;;;3.15;;
27201;SDS011;14717;46.924;15.474;2023-05-27T13:54:56;12.38;;;3.30;;
27201;SDS011;14717;46.924;15.474;2023-05-27T13:57:22;7.20;;;3.05;;
27201;SDS011;14717;46.924;15.474;2023-05-27T13:59:47;6.53;;;3.30;;
27201;SDS011;14717;46.924;15.474;2023-05-27T14:02:13;6.45;;;3.13;;
27201;SDS011;14717;46.924;15.474;2023-05-27T14:04:38;14.13;;;3.95;;
27201;SDS011;14717;46.924;15.474;2023-05-27T14:07:03;7.25;;;3.45;;
27201;SDS011;14717;46.924;15.474;2023-05-27T14:09:29;9.95;;;3.35;;
27201;SDS011;14717;46.924;15.474;2023-05-27T14:11:54;9.52;;;3.78;;
27201;SDS011;14717;46.924;15.474;2023-05-27T14:14:20;6.82;;;3.10;;
27201;SDS011;14717;46.924;15.474;2023-05-27T14:16:46;7.03;;;2.95;;
27201;SDS011;14717;46.924;15.474;2023-05-27T14:19:12;11.82;;;3.80;;
27201;SDS011;14717;46.924;15.474;2023-05-27T14:21:37;8.27;;;3.72;;
27201;SDS011;14717;46.924;15.474;2023-05-27T14:24:02;7.78;;;3.60;;
27201;SDS011;14717;46.924;15.474;2023-05-27T14:26:28;7.97;;;3.15;;
27201;SDS011;14717;46.924;15.474;2023-05-27T14:28:54;8.88;;;3.42;;
27201;SDS011;14717;46.924;15.474;2023-05-27T14:31:20;6.80;;;3.00;;
27201;SDS011;14717;46.924;15.474;2023-05-27T14:33:45;5.50;;;3.03;;
27201;SDS011;14717;46.924;15.474;2023-05-27T14:36:10;7.85;;;3.35;;
27201;SDS011;14717;46.924;15.474;2023-05-27T14:38:36;7.38;;;3.03;;
27201;SDS011;14717;46.924;15.474;2023-05-27T14:41:01;5.40;;;3.20;;
27201;SDS011;14717;46.924;15.474;2023-05-27T14:43:27;8.23;;;3.70;;
27201;SDS011;14717;46.924;15.474;2023-05-27T14:45:52;7.45;;;3.10;;
27201;SDS011;14717;46.924;15.474;2023-05-27T14:48:18;7.93;;;3.20;;
27201;SDS011;14717;46.924;15.474;2023-05-27T14:50:43;8.05;;;3.38;;
27201;SDS011;14717;46.924;15.474;2023-05-27T14:53:09;6.63;;;2.88;;
27201;SDS011;14717;46.924;15.474;2023-05-27T14:55:34;5.40;;;2.95;;
27201;SDS011;14717;46.924;15.474;2023-05-27T14:58:00;7.85;;;3.20;;
27201;SDS011;14717;46.924;15.474;2023-05-27T15:00:27;10.93;;;3.00;;
27201;SDS011;14717;46.924;15.474;2023-05-27T15:02:52;7.90;;;3.30;;
27201;SDS011;14717;46.924;15.474;2023-05-27T15:05:17;7.45;;;3.05;;
27201;SDS011;14717;46.924;15.474;2023-05-27T15:07:43;7.60;;;3.13;;
27201;SDS011;14717;46.924;15.474;2023-05-27T15:10:09;7.07;;;3.08;;
27201;SDS011;14717;46.924;15.474;2023-05-27T15:12:38;6.80;;;3.72;;
27201;SDS011;14717;46.924;15.474;2023-05-27T15:15:09;7.80;;;3.70;;
27201;SDS011;14717;46.924;15.474;2023-05-27T15:17:35;6.43;;;3.22;;
27201;SDS011;14717;46.924;15.474;2023-05-27T15:20:02;9.65;;;3.17;;
27201;SDS011;14717;46.924;15.474;2023-05-27T15:22:28;6.53;;;3.28;;
27201;SDS011;14717;46.924;15.474;2023-05-27T15:24:53;6.10;;;3.08;;
27201;SDS011;14717;46.924;15.474;2023-05-27T15:27:19;7.15;;;3.30;;
27201;SDS011;14717;46.924;15.474;2023-05-27T15:29:44;7.88;;;3.25;;
27201;SDS011;14717;46.924;15.474;2023-05-27T15:32:10;5.25;;;3.10;;
27201;SDS011;14717;46.924;15.474;2023-05-27T15:34:35;8.45;;;2.95;;
27201;SDS011;14717;46.924;15.474;2023-05-27T15:37:00;7.50;;;3.63;;
27201;SDS011;14717;46.924;15.474;2023-05-27T15:39:26;7.80;;;3.10;;
27201;SDS011;14717;46.924;15.474;2023-05-27T15:41:51;5.55;;;2.75;;
27201;SDS011;14717;46.924;15.474;2023-05-27T15:44:17;6.25;;;3.03;;
27201;SDS011;14717;46.924;15.474;2023-05-27T15:46:43;6.18;;;3.58;;
27201;SDS011;14717;46.924;15.474;2023-05-27T15:49:08;8.15;;;2.80;;
27201;SDS011;14717;46.924;15.474;2023-05-27T15:51:38;5.80;;;3.13;;
27201;SDS011;14717;46.924;15.474;2023-05-27T15:54:03;7.13;;;3.03;;
27201;SDS011;14717;46.924;15.474;2023-05-27T15:56:29;8.73;;;3.60;;
27201;SDS011;14717;46.924;15.474;2023-05-27T15:58:54;8.75;;;3.60;;
27201;SDS011;14717;46.924;15.474;2023-05-27T16:01:20;5.40;;;3.05;;
27201;SDS011;14717;46.924;15.474;2023-05-27T16:03:45;7.07;;;3.15;;
27201;SDS011;14717;46.924;15.474;2023-05-27T16:06:11;6.07;;;2.90;;
27201;SDS011;14717;46.924;15.474;2023-05-27T16:08:37;6.55;;;3.25;;
27201;SDS011;14717;46.924;15.474;2023-05-27T16:11:03;6.07;;;3.22;;
27201;SDS011;14717;46.924;15.474;2023-05-27T16:13:28;10.77;;;3.42;;